Time;durP1;ratioP1;P1;durP2;ratioP2;P2;SDS_P1;SDS_P2;PMS_P1;PMS_P2;Temp;Humidity;BMP_temperature;BMP_pressure;BME280_temperature;BME280_humidity;BME280_pressure;Samples;Min_cycle;Max_cycle;Signal;HPM_P1;HPM_P2
2022/07/01 00:02:27;;;;;;;6.97;6.30;;;20.70;99.90;;;;;;5073949;28;20441;-77
2022/07/01 00:04:55;;;;;;;7.60;7.00;;;20.70;99.90;;;;;;5072362;28;20449;-76
2022/07/01 00:07:42;;;;;;;8.00;7.30;;;20.60;99.90;;;;;;5073879;28;20803;-77
2022/07/01 00:10:10;;;;;;;6.97;6.37;;;20.60;99.90;;;;;;5073722;28;20461;-77
2022/07/01 00:12:40;;;;;;;8.70;6.70;;;20.60;99.90;;;;;;5073780;28;20830;-76
2022/07/01 00:15:09;;;;;;;7.83;7.13;;;20.60;99.90;;;;;;5071945;28;20465;-77
2022/07/01 00:17:39;;;;;;;7.53;6.83;;;20.60;99.90;;;;;;5073647;28;20491;-77
2022/07/01 00:20:08;;;;;;;7.33;6.63;;;20.60;99.90;;;;;;5073327;28;20499;-76
2022/07/01 00:22:37;;;;;;;8.97;8.17;;;20.50;99.90;;;;;;5073250;28;20437;-76
2022/07/01 00:25:06;;;;;;;8.60;7.90;;;20.50;99.90;;;;;;5071922;28;20498;-76
2022/07/01 00:27:38;;;;;;;8.10;7.47;;;20.50;99.90;;;;;;5073661;28;20445;-76
2022/07/01 00:30:09;;;;;;;10.20;9.20;;;20.40;99.90;;;;;;5071999;28;20488;-77
2022/07/01 00:32:38;;;;;;;11.20;10.30;;;20.40;99.90;;;;;;5073681;28;20470;-77
2022/07/01 00:35:07;;;;;;;11.73;10.83;;;20.30;99.90;;;;;;5071950;28;20538;-76
2022/07/01 00:37:35;;;;;;;11.87;10.97;;;20.30;99.90;;;;;;5071911;28;20827;-76
2022/07/01 00:40:04;;;;;;;12.40;11.40;;;20.20;99.90;;;;;;5072003;28;20461;-76
2022/07/01 00:42:32;;;;;;;11.90;10.90;;;20.20;99.90;;;;;;5072962;28;20959;-76
2022/07/01 00:45:01;;;;;;;10.40;9.60;;;20.20;99.90;;;;;;5071950;28;20447;-76
2022/07/01 00:47:31;;;;;;;10.90;10.10;;;20.10;99.90;;;;;;5071711;28;20445;-77
2022/07/01 00:49:59;;;;;;;10.20;9.40;;;20.10;99.90;;;;;;5074224;28;20965;-77
2022/07/01 00:52:27;;;;;;;10.37;9.60;;;20.00;99.90;;;;;;5073119;28;20444;-76
2022/07/01 00:54:59;;;;;;;8.83;8.23;;;20.00;99.90;;;;;;5073325;28;20871;-77
2022/07/01 00:57:31;;;;;;;9.60;8.90;;;19.90;99.90;;;;;;5071663;28;20469;-76
2022/07/01 00:59:59;;;;;;;9.67;8.97;;;19.90;99.90;;;;;;5072929;28;20463;-76
2022/07/01 01:02:28;;;;;;;9.83;8.83;;;19.90;99.90;;;;;;5075804;28;20476;-76
2022/07/01 01:04:58;;;;;;;9.17;8.43;;;19.80;99.90;;;;;;5076422;28;21012;-76
2022/07/01 01:07:26;;;;;;;9.37;8.60;;;19.80;99.90;;;;;;5077347;28;20428;-76
2022/07/01 01:09:54;;;;;;;9.30;8.43;;;19.70;99.90;;;;;;5075643;28;20462;-75
2022/07/01 01:12:23;;;;;;;9.93;9.03;;;19.70;99.90;;;;;;5075650;28;20464;-76
2022/07/01 01:14:52;;;;;;;9.37;8.63;;;19.60;99.90;;;;;;5075513;28;20448;-77
2022/07/01 01:17:22;;;;;;;9.50;8.70;;;19.60;99.90;;;;;;5075357;28;20563;-77
2022/07/01 01:19:50;;;;;;;9.87;9.07;;;19.50;99.90;;;;;;5075704;28;20565;-76
2022/07/01 01:22:21;;;;;;;10.17;9.33;;;19.50;99.90;;;;;;5076513;28;20429;-76
2022/07/01 01:24:49;;;;;;;11.53;10.33;;;19.50;99.90;;;;;;5076444;28;20432;-75
2022/07/01 01:27:18;;;;;;;10.63;9.57;;;19.40;99.90;;;;;;5076351;28;20516;-76
2022/07/01 01:29:46;;;;;;;10.83;9.97;;;19.30;99.90;;;;;;5076335;28;20561;-76
2022/07/01 01:32:14;;;;;;;12.97;9.50;;;19.30;99.90;;;;;;5075030;28;20449;-76
2022/07/01 01:34:43;;;;;;;11.70;10.60;;;19.20;99.90;;;;;;5076316;28;20436;-77
2022/07/01 01:37:11;;;;;;;11.10;9.97;;;19.10;99.90;;;;;;5074861;28;20903;-78
2022/07/01 01:39:40;;;;;;;10.53;9.50;;;19.10;99.90;;;;;;5075085;28;20472;-76
2022/07/01 01:42:09;;;;;;;8.87;8.07;;;19.00;99.90;;;;;;5076465;28;20445;-78
2022/07/01 01:44:37;;;;;;;7.33;6.10;;;19.00;99.90;;;;;;5076196;28;20524;-76
2022/07/01 01:47:07;;;;;;;6.63;5.60;;;18.80;99.90;;;;;;5074577;28;20441;-76
2022/07/01 01:49:35;;;;;;;7.70;5.60;;;18.70;99.90;;;;;;5075697;28;20468;-76
2022/07/01 01:52:04;;;;;;;7.27;5.73;;;18.60;99.90;;;;;;5076362;28;20453;-76
2022/07/01 01:54:32;;;;;;;9.10;6.70;;;18.50;99.90;;;;;;5076081;28;20460;-77
2022/07/01 01:57:02;;;;;;;8.17;6.00;;;18.40;99.90;;;;;;5076335;28;20469;-76
2022/07/01 01:59:30;;;;;;;6.47;5.27;;;18.30;99.90;;;;;;5074688;28;20475;-77
2022/07/01 02:01:59;;;;;;;7.43;5.63;;;18.30;99.90;;;;;;5074370;28;20457;-78
2022/07/01 02:04:27;;;;;;;6.37;5.77;;;18.20;99.90;;;;;;5074653;28;20476;-76
2022/07/01 02:06:55;;;;;;;8.63;5.90;;;18.20;99.90;;;;;;5075482;28;20437;-74
2022/07/01 02:09:24;;;;;;;7.10;6.20;;;18.10;99.90;;;;;;5075442;28;20469;-76
2022/07/01 02:11:52;;;;;;;8.80;5.30;;;18.10;99.90;;;;;;5075877;28;20536;-75
2022/07/01 02:14:22;;;;;;;6.30;5.80;;;18.00;99.90;;;;;;5075145;28;20449;-76
2022/07/01 02:16:50;;;;;;;7.93;6.03;;;17.90;99.90;;;;;;5073856;28;20494;-76
2022/07/01 02:19:18;;;;;;;7.80;5.33;;;17.90;99.90;;;;;;5073782;28;20456;-76
2022/07/01 02:21:46;;;;;;;7.03;5.47;;;17.80;99.90;;;;;;5073852;28;20950;-76
2022/07/01 02:24:15;;;;;;;7.17;5.30;;;17.80;99.90;;;;;;5073782;28;20532;-77
2022/07/01 02:26:44;;;;;;;8.23;5.50;;;17.80;99.90;;;;;;5075612;28;20426;-76
2022/07/01 02:29:12;;;;;;;8.47;5.50;;;17.70;99.90;;;;;;5075043;28;20977;-76
2022/07/01 02:31:42;;;;;;;10.30;6.50;;;17.70;99.90;;;;;;5073570;28;20453;-75
2022/07/01 02:34:13;;;;;;;8.07;5.57;;;17.70;99.90;;;;;;5073725;28;20949;-76
2022/07/01 02:36:42;;;;;;;7.60;5.73;;;17.70;99.90;;;;;;5073709;28;20457;-77
2022/07/01 02:39:10;;;;;;;6.27;5.53;;;17.70;99.90;;;;;;5073589;28;20484;-77
2022/07/01 02:44:20;;;;;;;8.23;5.50;;;17.60;99.90;;;;;;5072683;28;20453;-75
2022/07/01 02:46:50;;;;;;;8.60;5.10;;;17.60;99.90;;;;;;5073475;28;20441;-75
2022/07/01 02:49:18;;;;;;;8.00;5.23;;;17.60;99.90;;;;;;5073601;28;20565;-75
2022/07/01 02:51:46;;;;;;;5.20;4.70;;;17.50;99.90;;;;;;5074824;28;20809;-75
2022/07/01 02:54:14;;;;;;;9.97;4.63;;;17.50;99.90;;;;;;5074608;28;20433;-76
2022/07/01 02:56:43;;;;;;;8.30;4.00;;;17.40;99.90;;;;;;5074725;28;20796;-76
2022/07/01 02:59:11;;;;;;;6.53;4.50;;;17.50;99.90;;;;;;5073029;28;20542;-76
2022/07/01 03:01:40;;;;;;;8.60;3.40;;;17.40;99.90;;;;;;5073106;28;20551;-76
2022/07/01 03:04:10;;;;;;;8.13;4.00;;;17.40;99.90;;;;;;5073104;28;20423;-76
2022/07/01 03:06:38;;;;;;;9.83;3.30;;;17.40;99.90;;;;;;5073507;28;20524;-76
2022/07/01 03:09:06;;;;;;;8.63;3.80;;;17.40;99.90;;;;;;5074208;28;20495;-76
2022/07/01 03:11:34;;;;;;;4.27;3.13;;;17.40;99.90;;;;;;5073926;28;20459;-77
2022/07/01 03:14:03;;;;;;;5.77;3.37;;;17.40;99.90;;;;;;5075115;28;20468;-76
2022/07/01 03:16:31;;;;;;;6.83;3.87;;;17.40;99.90;;;;;;5072854;28;20437;-77
2022/07/01 03:19:01;;;;;;;8.13;3.90;;;17.50;99.90;;;;;;5074522;28;20481;-76
2022/07/01 03:21:31;;;;;;;4.73;3.60;;;17.50;99.90;;;;;;5075424;28;20483;-77
2022/07/01 03:23:59;;;;;;;8.00;3.57;;;17.40;99.90;;;;;;5076904;28;20436;-78
2022/07/01 03:26:27;;;;;;;6.53;3.63;;;17.50;99.90;;;;;;5077245;28;20456;-79
2022/07/01 03:28:55;;;;;;;4.33;3.23;;;17.40;99.90;;;;;;5076227;28;20568;-78
2022/07/01 03:31:23;;;;;;;4.47;3.03;;;17.50;99.90;;;;;;5077295;28;20494;-78
2022/07/01 03:33:52;;;;;;;5.83;2.73;;;17.40;99.90;;;;;;5076978;28;20433;-78
2022/07/01 03:36:20;;;;;;;3.77;2.53;;;17.40;99.90;;;;;;5077317;28;20859;-77
2022/07/01 03:38:50;;;;;;;4.40;2.50;;;17.40;99.90;;;;;;5077317;28;20873;-78
2022/07/01 03:41:18;;;;;;;5.57;2.73;;;17.40;99.90;;;;;;5077154;28;20805;-78
2022/07/01 03:43:46;;;;;;;4.63;2.50;;;17.30;99.90;;;;;;5075548;28;20455;-78
2022/07/01 03:46:14;;;;;;;3.53;2.60;;;17.30;99.90;;;;;;5075674;28;20513;-78
2022/07/01 03:48:42;;;;;;;3.30;2.37;;;17.30;99.90;;;;;;5074845;28;20460;-79
2022/07/01 03:51:10;;;;;;;5.77;3.07;;;17.20;99.90;;;;;;5077370;28;20433;-77
2022/07/01 03:56:25;;;;;;;5.33;2.87;;;17.30;99.90;;;;;;5075378;28;20800;-79
2022/07/01 03:58:54;;;;;;;5.47;2.27;;;17.30;99.90;;;;;;5075102;28;20481;-79
2022/07/01 04:01:22;;;;;;;4.90;2.97;;;17.20;99.90;;;;;;5077126;28;20469;-79
2022/07/01 04:03:50;;;;;;;3.17;2.83;;;17.20;99.90;;;;;;5075789;28;20457;-78
2022/07/01 04:06:19;;;;;;;3.60;2.40;;;17.20;99.90;;;;;;5076604;28;20938;-78
2022/07/01 04:08:48;;;;;;;5.50;2.40;;;17.20;99.90;;;;;;5075566;28;20471;-79
2022/07/01 04:11:17;;;;;;;4.17;2.43;;;17.10;99.90;;;;;;5074578;28;20445;-77
2022/07/01 04:13:50;;;;;;;4.07;2.03;;;17.10;99.90;;;;;;5072920;28;20955;-77
2022/07/01 04:16:18;;;;;;;4.00;2.40;;;17.10;99.90;;;;;;5075710;28;20520;-77
2022/07/01 04:18:47;;;;;;;4.17;2.40;;;17.10;99.90;;;;;;5073543;28;20841;-77
2022/07/01 04:24:05;;;;;;;4.43;2.60;;;17.00;99.90;;;;;;5076311;28;20428;-78
2022/07/01 04:26:34;;;;;;;5.70;2.20;;;17.00;99.90;;;;;;5074515;28;20976;-78
2022/07/01 04:29:07;;;;;;;3.87;2.40;;;17.00;99.90;;;;;;5074422;28;20461;-78
2022/07/01 04:31:36;;;;;;;2.47;2.10;;;17.00;99.90;;;;;;5076205;28;20517;-77
2022/07/01 04:34:04;;;;;;;3.40;2.00;;;17.00;99.90;;;;;;5074497;28;20560;-77
2022/07/01 04:36:33;;;;;;;4.60;2.27;;;17.00;99.90;;;;;;5075485;28;20506;-77
2022/07/01 04:39:01;;;;;;;3.57;2.00;;;17.00;99.90;;;;;;5082629;28;20469;-79
2022/07/01 04:44:17;;;;;;;3.23;2.30;;;17.00;99.90;;;;;;5081168;28;20459;-79
2022/07/01 04:46:46;;;;;;;3.53;2.20;;;17.00;99.90;;;;;;5080557;28;20502;-79
2022/07/01 04:49:14;;;;;;;4.40;2.27;;;16.90;99.90;;;;;;5080295;28;20483;-78
2022/07/01 04:51:43;;;;;;;2.50;2.20;;;16.90;99.90;;;;;;5065902;28;20427;-79
2022/07/01 04:54:11;;;;;;;4.90;2.10;;;16.90;99.90;;;;;;5077691;28;20520;-78
2022/07/01 04:56:39;;;;;;;2.30;2.00;;;16.90;99.90;;;;;;5076698;28;20472;-79
2022/07/01 04:59:11;;;;;;;2.53;1.90;;;16.90;99.90;;;;;;5078249;28;20465;-77
2022/07/01 05:01:41;;;;;;;3.87;2.33;;;16.80;99.90;;;;;;5076486;28;20479;-79
2022/07/01 05:04:10;;;;;;;3.63;2.17;;;16.80;99.90;;;;;;5075916;28;20419;-77
2022/07/01 05:06:39;;;;;;;3.10;2.17;;;16.80;99.90;;;;;;5075791;28;20445;-77
2022/07/01 05:09:08;;;;;;;3.43;2.80;;;16.80;99.90;;;;;;5075864;28;20520;-77
2022/07/01 05:11:36;;;;;;;4.23;3.27;;;16.80;99.90;;;;;;5077409;28;20422;-78
2022/07/01 05:14:04;;;;;;;4.70;2.90;;;16.80;99.90;;;;;;5076090;28;20559;-78
2022/07/01 05:16:32;;;;;;;2.97;2.63;;;16.80;99.90;;;;;;5076977;28;21006;-79
2022/07/01 05:21:57;;;;;;;3.27;2.97;;;16.80;99.90;;;;;;5076386;28;20416;-78
2022/07/01 05:24:30;;;;;;;4.03;3.67;;;16.80;99.90;;;;;;5076294;28;20423;-78
2022/07/01 05:26:59;;;;;;;5.47;3.00;;;16.80;99.90;;;;;;5076861;28;20443;-77
2022/07/01 05:29:28;;;;;;;5.80;3.43;;;16.80;99.90;;;;;;5076721;28;20444;-77
2022/07/01 05:31:57;;;;;;;4.10;3.70;;;16.80;99.90;;;;;;5077601;28;20522;-78
2022/07/01 05:34:26;;;;;;;4.40;4.00;;;16.80;99.90;;;;;;5077340;28;20445;-78
2022/07/01 05:36:55;;;;;;;3.90;3.53;;;16.80;99.90;;;;;;5076334;28;20517;-80
2022/07/01 05:39:23;;;;;;;6.10;4.20;;;16.80;99.90;;;;;;5077010;28;20572;-79
2022/07/01 05:41:52;;;;;;;5.77;3.60;;;16.90;99.90;;;;;;5077401;28;20495;-79
2022/07/01 05:44:21;;;;;;;5.47;4.30;;;16.90;99.90;;;;;;5079128;28;21004;-78
2022/07/01 05:46:49;;;;;;;5.37;4.47;;;16.90;99.90;;;;;;5076557;28;20441;-78
2022/07/01 05:49:18;;;;;;;5.07;4.67;;;16.90;99.90;;;;;;5077124;28;21021;-79
2022/07/01 05:51:47;;;;;;;4.90;4.50;;;16.90;99.90;;;;;;5077156;28;20512;-79
2022/07/01 05:54:16;;;;;;;6.90;5.33;;;16.90;99.90;;;;;;5077232;28;20449;-79
2022/07/01 05:56:44;;;;;;;5.70;5.20;;;16.90;99.90;;;;;;5075815;28;20499;-79
2022/07/01 05:59:12;;;;;;;6.60;5.30;;;16.90;99.90;;;;;;5077840;28;20452;-79
2022/07/01 06:01:40;;;;;;;6.57;6.00;;;16.90;99.90;;;;;;5076706;28;20448;-79
2022/07/01 06:04:09;;;;;;;7.53;5.90;;;16.90;99.90;;;;;;5076954;28;20453;-78
2022/07/01 06:06:37;;;;;;;7.30;6.60;;;16.90;99.90;;;;;;5077617;28;20441;-78
2022/07/01 06:09:07;;;;;;;7.37;6.70;;;16.90;99.90;;;;;;5077295;28;20466;-78
2022/07/01 06:11:36;;;;;;;7.87;7.27;;;17.00;99.90;;;;;;5077029;28;20930;-78
2022/07/01 06:14:04;;;;;;;7.53;6.93;;;17.00;99.90;;;;;;5075071;28;20463;-80
2022/07/01 06:16:32;;;;;;;9.27;8.47;;;17.00;99.90;;;;;;5076351;28;20412;-79
2022/07/01 06:19:01;;;;;;;8.90;8.10;;;17.00;99.90;;;;;;5076248;28;20504;-79
2022/07/01 06:21:29;;;;;;;8.97;8.10;;;17.00;99.90;;;;;;5077508;28;20813;-77
2022/07/01 06:23:58;;;;;;;8.70;7.90;;;17.10;99.90;;;;;;5076090;28;20485;-77
2022/07/01 06:26:27;;;;;;;9.60;8.60;;;17.10;99.90;;;;;;5078129;28;20448;-79
2022/07/01 06:28:55;;;;;;;10.03;9.10;;;17.10;99.90;;;;;;5077158;28;20541;-78
2022/07/01 06:31:24;;;;;;;10.57;9.70;;;17.10;99.90;;;;;;5076460;28;20469;-79
2022/07/01 06:33:53;;;;;;;11.27;10.33;;;17.10;99.90;;;;;;5076551;28;20480;-78
2022/07/01 06:36:21;;;;;;;11.70;10.63;;;17.10;99.90;;;;;;5078264;28;20968;-79
2022/07/01 06:38:49;;;;;;;11.80;10.80;;;17.20;99.90;;;;;;5077088;28;20496;-78
2022/07/01 06:41:30;;;;;;;10.63;9.83;;;17.20;99.90;;;;;;5077390;28;20469;-79
2022/07/01 06:44:01;;;;;;;11.33;10.33;;;17.20;99.90;;;;;;5076723;28;20442;-79
2022/07/01 06:46:30;;;;;;;11.63;10.63;;;17.20;99.90;;;;;;5076839;28;20494;-80
2022/07/01 06:49:00;;;;;;;12.70;11.53;;;17.30;99.90;;;;;;5076143;28;20465;-80
2022/07/01 06:51:28;;;;;;;11.93;10.93;;;17.30;99.90;;;;;;5076233;28;20922;-79
2022/07/01 06:53:58;;;;;;;11.47;10.37;;;17.30;99.90;;;;;;5075938;28;20475;-81
2022/07/01 06:56:27;;;;;;;12.07;11.07;;;17.30;99.90;;;;;;5077205;28;20476;-79
2022/07/01 06:58:55;;;;;;;10.27;9.40;;;17.40;99.90;;;;;;5075324;28;20499;-80
2022/07/01 07:01:25;;;;;;;12.13;11.00;;;17.40;99.90;;;;;;5075086;28;20508;-79
2022/07/01 07:03:54;;;;;;;12.33;11.07;;;17.40;99.90;;;;;;5075874;28;20782;-80
2022/07/01 07:06:23;;;;;;;12.33;11.07;;;17.40;99.90;;;;;;5076266;28;20457;-78
2022/07/01 07:08:51;;;;;;;12.30;11.30;;;17.30;99.90;;;;;;5075257;28;20509;-78
2022/07/01 07:11:19;;;;;;;12.27;11.17;;;17.30;99.90;;;;;;5076547;28;20438;-79
2022/07/01 07:13:48;;;;;;;11.27;10.23;;;17.30;99.90;;;;;;5075725;28;20436;-78
2022/07/01 07:16:20;;;;;;;11.80;10.80;;;17.30;99.90;;;;;;5074822;28;20440;-81
2022/07/01 07:18:51;;;;;;;10.90;9.80;;;17.30;99.90;;;;;;5075470;28;20473;-80
2022/07/01 07:21:20;;;;;;;11.43;10.53;;;17.30;99.90;;;;;;5075537;28;20461;-81
2022/07/01 07:23:48;;;;;;;13.20;11.90;;;17.30;99.90;;;;;;5074915;28;20478;-80
2022/07/01 07:26:16;;;;;;;13.27;12.13;;;17.30;99.90;;;;;;5075200;28;20484;-79
2022/07/01 07:28:45;;;;;;;12.53;11.40;;;17.30;99.90;;;;;;5076351;28;20431;-80
2022/07/01 07:31:13;;;;;;;14.70;13.40;;;17.30;99.90;;;;;;5075833;28;20456;-81
2022/07/01 07:33:41;;;;;;;13.93;12.73;;;17.40;99.90;;;;;;5076129;28;20460;-80
2022/07/01 07:36:11;;;;;;;14.03;12.80;;;17.40;99.90;;;;;;5074973;28;20453;-80
2022/07/01 07:38:40;;;;;;;13.37;12.13;;;17.50;99.90;;;;;;5074591;28;20465;-79
2022/07/01 07:41:09;;;;;;;14.77;13.47;;;17.50;99.90;;;;;;5074044;28;20862;-79
2022/07/01 07:43:37;;;;;;;15.67;14.37;;;17.50;99.90;;;;;;5075308;28;20429;-80
2022/07/01 07:46:05;;;;;;;20.13;14.90;;;17.50;99.90;;;;;;5075504;28;20491;-79
2022/07/01 07:48:34;;;;;;;15.80;14.50;;;17.50;99.90;;;;;;5074903;28;20827;-78
2022/07/01 07:51:02;;;;;;;15.80;14.50;;;17.40;99.90;;;;;;5076281;28;20431;-79
2022/07/01 07:53:32;;;;;;;16.37;14.93;;;17.40;99.90;;;;;;5074047;28;20424;-78
2022/07/01 07:56:00;;;;;;;18.17;16.60;;;17.40;99.90;;;;;;5075559;28;20515;-80
2022/07/01 07:58:29;;;;;;;17.70;16.13;;;17.40;99.90;;;;;;5075192;28;20465;-79
2022/07/01 08:00:57;;;;;;;18.33;16.80;;;17.40;99.90;;;;;;5075482;28;20522;-79
2022/07/01 08:03:26;;;;;;;19.93;18.20;;;17.40;99.90;;;;;;5074296;28;20476;-78
2022/07/01 08:05:54;;;;;;;20.50;18.70;;;17.40;99.90;;;;;;5074983;28;20544;-80
2022/07/01 08:08:22;;;;;;;22.00;20.07;;;17.40;99.90;;;;;;5075737;28;20459;-78
2022/07/01 08:10:52;;;;;;;21.70;19.90;;;17.30;99.90;;;;;;5076220;28;20441;-80
2022/07/01 08:13:20;;;;;;;21.93;20.03;;;17.30;99.90;;;;;;5075889;28;20511;-80
2022/07/01 08:15:49;;;;;;;23.70;21.50;;;17.30;99.90;;;;;;5074857;28;20464;-79
2022/07/01 08:18:17;;;;;;;24.33;22.23;;;17.30;99.90;;;;;;5074567;28;20461;-78
2022/07/01 08:20:45;;;;;;;23.57;21.57;;;17.30;99.90;;;;;;5076888;28;20435;-79
2022/07/01 08:23:14;;;;;;;23.50;21.57;;;17.30;99.90;;;;;;5074231;28;20454;-79
2022/07/01 08:25:43;;;;;;;26.77;24.10;;;17.30;99.90;;;;;;5074129;28;20511;-79
2022/07/01 08:28:13;;;;;;;26.40;24.00;;;17.30;99.90;;;;;;5076014;28;20443;-79
2022/07/01 08:30:45;;;;;;;28.13;25.83;;;17.30;99.90;;;;;;5074107;28;20419;-78
2022/07/01 08:33:14;;;;;;;27.97;25.50;;;17.30;99.90;;;;;;5075291;28;20866;-78
2022/07/01 08:35:42;;;;;;;26.40;24.10;;;17.30;99.90;;;;;;5074938;28;20452;-80
2022/07/01 08:38:10;;;;;;;27.63;25.23;;;17.30;99.90;;;;;;5075900;28;20445;-79
2022/07/01 08:40:39;;;;;;;27.73;25.20;;;17.30;99.90;;;;;;5076153;28;20465;-79
2022/07/01 08:43:08;;;;;;;29.90;26.97;;;17.30;99.90;;;;;;5073256;28;20453;-80
2022/07/01 08:45:39;;;;;;;28.90;26.10;;;17.30;99.90;;;;;;5073407;28;20481;-81
2022/07/01 08:48:08;;;;;;;29.70;26.93;;;17.30;99.90;;;;;;5074725;28;20483;-80
2022/07/01 08:50:38;;;;;;;28.70;26.10;;;17.30;99.90;;;;;;5074752;28;20510;-79
2022/07/01 08:53:08;;;;;;;27.60;25.00;;;17.40;99.90;;;;;;5075036;28;20441;-79
2022/07/01 08:56:40;;;;;;;26.50;24.00;;;17.40;99.90;;;;;;5076580;28;20441;-80
2022/07/01 08:58:28;;;;;;;26.13;23.73;;;17.40;99.90;;;;;;5073644;28;20528;-79
2022/07/01 09:01:16;;;;;;;26.27;23.73;;;17.30;99.90;;;;;;5074826;28;20504;-79
2022/07/01 09:03:46;;;;;;;27.27;24.60;;;17.30;99.90;;;;;;5075170;28;20488;-79
2022/07/01 09:06:16;;;;;;;26.10;23.70;;;17.40;99.90;;;;;;5073743;28;20441;-80
2022/07/01 09:08:46;;;;;;;26.43;24.13;;;17.30;99.90;;;;;;5073121;28;20918;-79
2022/07/01 09:11:16;;;;;;;25.30;22.90;;;17.40;99.90;;;;;;5073177;28;20441;-78
2022/07/01 09:13:45;;;;;;;25.40;23.20;;;17.40;99.90;;;;;;5072953;28;20880;-79
2022/07/01 09:16:16;;;;;;;25.73;23.53;;;17.40;99.90;;;;;;5073435;28;20918;-78
2022/07/01 09:19:01;;;;;;;25.37;22.97;;;17.40;99.90;;;;;;5074496;28;20465;-77
2022/07/01 09:21:31;;;;;;;26.13;23.63;;;17.50;99.90;;;;;;5073379;28;20465;-78
2022/07/01 09:24:00;;;;;;;25.43;22.83;;;17.60;99.90;;;;;;5077543;28;20795;-79
2022/07/01 09:26:28;;;;;;;25.00;22.50;;;17.60;99.90;;;;;;5079021;28;20500;-80
2022/07/01 09:28:59;;;;;;;24.43;22.23;;;17.60;99.90;;;;;;5077947;28;21018;-78
2022/07/01 09:31:35;;;;;;;24.03;21.90;;;17.60;99.90;;;;;;5077103;28;20445;-80
2022/07/01 09:34:04;;;;;;;23.33;21.17;;;17.60;99.90;;;;;;5077867;28;20448;-78
2022/07/01 09:36:33;;;;;;;23.63;21.63;;;17.60;99.90;;;;;;5076695;28;20456;-80
2022/07/01 09:39:06;;;;;;;25.27;22.97;;;17.60;99.90;;;;;;5076460;28;21002;-79
2022/07/01 09:41:58;;;;;;;25.40;23.10;;;17.60;99.90;;;;;;5078609;28;20449;-79
2022/07/01 09:44:28;;;;;;;25.47;23.17;;;17.70;99.90;;;;;;5076437;28;20471;-77
2022/07/01 09:47:00;;;;;;;24.40;22.30;;;17.70;99.90;;;;;;5077960;28;20842;-79
2022/07/01 09:49:29;;;;;;;25.00;22.80;;;17.80;99.90;;;;;;5077089;28;20465;-79
2022/07/01 09:51:57;;;;;;;26.00;23.70;;;17.80;99.90;;;;;;5076971;28;20434;-78
2022/07/01 09:54:25;;;;;;;24.93;22.73;;;17.90;99.90;;;;;;5075907;28;20540;-80
2022/07/01 09:56:53;;;;;;;22.93;20.93;;;17.90;99.90;;;;;;5077358;28;20467;-78
2022/07/01 09:59:22;;;;;;;24.40;22.10;;;17.90;99.90;;;;;;5076289;28;20895;-79
2022/07/01 10:01:50;;;;;;;23.27;21.23;;;17.90;99.90;;;;;;5077522;28;20469;-78
2022/07/01 10:04:21;;;;;;;23.83;21.83;;;18.00;99.90;;;;;;5076457;28;20506;-79
2022/07/01 10:07:07;;;;;;;25.23;23.13;;;18.00;99.90;;;;;;5077859;28;20417;-77
2022/07/01 10:09:53;;;;;;;25.00;22.90;;;18.00;99.90;;;;;;5076554;28;20469;-79
2022/07/01 10:12:39;;;;;;;23.90;21.70;;;18.00;99.90;;;;;;5077962;28;20919;-79
2022/07/01 10:15:18;;;;;;;23.07;21.03;;;18.10;99.90;;;;;;5077601;28;20506;-79
2022/07/01 10:17:48;;;;;;;24.20;22.20;;;18.10;99.90;;;;;;5078226;28;20441;-79
2022/07/01 10:20:20;;;;;;;22.40;20.50;;;18.10;99.90;;;;;;5080743;28;20556;-78
2022/07/01 10:22:51;;;;;;;24.23;22.03;;;18.10;99.90;;;;;;5076961;28;20465;-78
2022/07/01 10:25:51;;;;;;;22.83;20.90;;;18.10;99.90;;;;;;5077673;28;20543;-80
2022/07/01 10:28:23;;;;;;;21.87;19.87;;;18.10;99.90;;;;;;5017438;28;20464;-80
2022/07/01 10:31:01;;;;;;;22.63;20.50;;;18.10;99.90;;;;;;5062289;28;20452;-78
2022/07/01 10:33:42;;;;;;;21.60;19.60;;;18.20;99.90;;;;;;5077197;28;20422;-79
2022/07/01 10:36:16;;;;;;;20.63;19.03;;;18.20;99.90;;;;;;5078095;28;20952;-79
2022/07/01 10:39:22;;;;;;;20.83;19.13;;;18.20;99.90;;;;;;5075449;28;20491;-80
2022/07/01 10:42:05;;;;;;;20.10;18.30;;;18.20;99.90;;;;;;5075734;28;20457;-80
2022/07/01 10:45:07;;;;;;;20.40;18.57;;;18.30;99.90;;;;;;5076784;28;20495;-79
2022/07/01 10:47:37;;;;;;;19.10;17.50;;;18.30;99.90;;;;;;5080777;28;20922;-79
2022/07/01 10:50:08;;;;;;;19.67;17.97;;;18.40;99.90;;;;;;5088043;28;20551;-78
2022/07/01 10:52:38;;;;;;;19.40;17.50;;;18.40;99.90;;;;;;5084308;28;20445;-78
2022/07/01 10:55:08;;;;;;;18.10;16.70;;;18.50;99.90;;;;;;5085006;28;20441;-78
2022/07/01 10:57:42;;;;;;;17.17;15.87;;;18.50;99.90;;;;;;5083513;28;20479;-80
2022/07/01 11:00:34;;;;;;;18.80;17.27;;;18.60;99.90;;;;;;5083261;28;20476;-78
2022/07/01 11:03:08;;;;;;;18.67;16.80;;;18.70;99.90;;;;;;5082797;28;20469;-78
2022/07/01 11:05:37;;;;;;;18.00;16.50;;;18.80;99.90;;;;;;5082080;28;20444;-78
2022/07/01 11:08:08;;;;;;;16.40;15.03;;;18.90;99.90;;;;;;5077753;28;20510;-78
2022/07/01 11:10:40;;;;;;;16.40;14.87;;;19.00;99.90;;;;;;5080165;28;20891;-77
2022/07/01 11:13:09;;;;;;;16.70;15.30;;;19.10;99.90;;;;;;5082387;28;20437;-78
2022/07/01 11:15:37;;;;;;;16.00;14.60;;;19.20;99.90;;;;;;5081543;28;20962;-78
2022/07/01 11:18:06;;;;;;;18.53;16.93;;;19.40;99.90;;;;;;5077873;28;20437;-77
2022/07/01 11:20:35;;;;;;;17.07;15.30;;;19.50;99.90;;;;;;5080916;28;20453;-78
2022/07/01 11:23:03;;;;;;;18.33;16.73;;;19.60;99.90;;;;;;5081352;28;20491;-78
2022/07/01 11:25:33;;;;;;;18.60;17.10;;;19.60;99.90;;;;;;5080901;28;20440;-78
2022/07/01 11:28:01;;;;;;;16.97;15.47;;;19.70;99.90;;;;;;5078314;28;20449;-76
2022/07/01 11:30:29;;;;;;;18.07;16.57;;;19.70;99.90;;;;;;5082772;28;20957;-78
2022/07/01 11:32:59;;;;;;;16.70;14.90;;;19.80;99.90;;;;;;5078714;28;20445;-77
2022/07/01 11:41:06;;;;;;;17.43;15.93;;;19.90;99.90;;;;;;5080863;28;20433;-78
2022/07/01 11:43:38;;;;;;;18.33;16.83;;;20.00;99.90;;;;;;5075589;28;20469;-79
2022/07/01 11:46:09;;;;;;;17.93;16.10;;;20.10;99.90;;;;;;5074426;28;20475;-79
2022/07/01 11:48:40;;;;;;;15.27;13.97;;;20.10;99.90;;;;;;5076482;28;20476;-76
2022/07/01 11:51:12;;;;;;;14.20;12.60;;;20.30;99.90;;;;;;5073426;28;20528;-77
2022/07/01 11:53:43;;;;;;;15.77;14.27;;;20.30;99.90;;;;;;5072401;28;20464;-77
2022/07/01 11:56:14;;;;;;;14.03;12.83;;;20.30;99.90;;;;;;5074252;28;20425;-77
2022/07/01 11:58:49;;;;;;;13.13;11.93;;;20.40;99.90;;;;;;5073609;28;20464;-77
2022/07/01 12:01:26;;;;;;;11.53;10.47;;;20.40;99.90;;;;;;5073541;28;20809;-77
2022/07/01 12:03:56;;;;;;;10.70;9.80;;;20.50;99.90;;;;;;5075401;28;21003;-79
2022/07/01 12:06:25;;;;;;;8.80;8.00;;;20.60;99.90;;;;;;5075445;28;20528;-77
2022/07/01 12:08:56;;;;;;;9.20;8.40;;;20.60;99.90;;;;;;5074173;28;20467;-79
2022/07/01 12:11:27;;;;;;;9.10;8.37;;;20.70;99.90;;;;;;5075887;28;20513;-76
2022/07/01 12:13:57;;;;;;;9.80;8.80;;;20.80;99.90;;;;;;5074727;28;20430;-77
2022/07/01 12:16:26;;;;;;;9.60;8.00;;;20.80;99.90;;;;;;5075664;28;20409;-78
2022/07/01 12:18:56;;;;;;;8.30;7.60;;;20.80;99.90;;;;;;5073645;28;20477;-79
2022/07/01 12:21:26;;;;;;;9.77;8.83;;;20.90;99.90;;;;;;5075427;28;20744;-78
2022/07/01 12:24:11;;;;;;;9.80;8.67;;;21.00;99.90;;;;;;5073400;28;20469;-78
2022/07/01 12:26:50;;;;;;;9.83;8.97;;;21.10;99.90;;;;;;5074557;28;20422;-77
2022/07/01 12:29:22;;;;;;;9.43;8.63;;;21.20;99.90;;;;;;5073764;28;20472;-77
2022/07/01 12:31:59;;;;;;;10.27;9.37;;;21.20;99.90;;;;;;5072515;28;20430;-76
2022/07/01 12:34:41;;;;;;;10.00;9.20;;;21.20;99.90;;;;;;5072983;28;20494;-76
2022/07/01 12:37:13;;;;;;;9.20;8.30;;;21.20;99.90;;;;;;5074417;28;20513;-77
2022/07/01 12:39:46;;;;;;;10.13;9.13;;;21.20;99.90;;;;;;5077354;28;20450;-80
2022/07/01 12:42:25;;;;;;;9.97;8.93;;;21.20;99.80;;;;;;5083427;28;20195;-80
2022/07/01 12:44:55;;;;;;;9.20;8.40;;;21.20;99.60;;;;;;5081979;28;20460;-81
2022/07/01 12:47:28;;;;;;;9.80;9.00;;;21.20;99.50;;;;;;5085504;28;20433;-80
2022/07/01 12:50:17;;;;;;;8.83;7.93;;;21.20;99.50;;;;;;5083558;28;20496;-80
2022/07/01 12:53:00;;;;;;;8.70;7.80;;;21.20;99.30;;;;;;5084735;28;20429;-81
2022/07/01 12:55:31;;;;;;;7.63;6.93;;;21.20;99.40;;;;;;5083550;28;20472;-81
2022/07/01 12:58:03;;;;;;;8.73;7.83;;;21.20;99.20;;;;;;5086674;28;20441;-81
2022/07/01 13:00:32;;;;;;;10.17;9.27;;;21.20;99.00;;;;;;5087496;28;20445;-79
2022/07/01 13:03:02;;;;;;;9.37;8.57;;;21.20;98.80;;;;;;5087040;28;20468;-80
2022/07/01 13:05:33;;;;;;;8.10;7.33;;;21.10;98.80;;;;;;5088132;28;21014;-79
2022/07/01 13:08:02;;;;;;;7.40;6.60;;;21.10;98.80;;;;;;5090155;28;20425;-80
2022/07/01 13:10:30;;;;;;;7.50;6.80;;;21.10;98.70;;;;;;5089170;28;20471;-79
2022/07/01 13:13:01;;;;;;;7.47;6.67;;;21.20;98.50;;;;;;5089581;28;20444;-81
2022/07/01 13:15:29;;;;;;;7.70;7.00;;;21.10;98.30;;;;;;5089231;28;20543;-81